sensor_id;sensor_type;location;lat;lon;timestamp;temperature;humidity
19206;DHT22;59358;52.134;5.596;2023-06-22T00:02:02;18.60;99.90
19206;DHT22;59358;52.134;5.596;2023-06-22T00:04:28;18.60;99.90
19206;DHT22;59358;52.134;5.596;2023-06-22T00:06:55;18.60;99.90
19206;DHT22;59358;52.134;5.596;2023-06-22T00:09:22;18.50;99.90
19206;DHT22;59358;52.134;5.596;2023-06-22T00:11:49;18.50;99.90
19206;DHT22;59358;52.134;5.596;2023-06-22T00:14:15;18.50;99.90
19206;DHT22;59358;52.134;5.596;2023-06-22T00:16:42;18.50;99.90
19206;DHT22;59358;52.134;5.596;2023-06-22T00:19:10;18.40;99.90
19206;DHT22;59358;52.134;5.596;2023-06-22T00:21:38;18.50;99.90
19206;DHT22;59358;52.134;5.596;2023-06-22T00:24:05;18.50;99.90
19206;DHT22;59358;52.134;5.596;2023-06-22T00:26:32;18.50;99.90
19206;DHT22;59358;52.134;5.596;2023-06-22T00:28:59;18.50;99.90
19206;DHT22;59358;52.134;5.596;2023-06-22T00:31:26;18.40;99.90
19206;DHT22;59358;52.134;5.596;2023-06-22T00:33:53;18.40;99.90
19206;DHT22;59358;52.134;5.596;2023-06-22T00:36:21;18.40;99.90
19206;DHT22;59358;52.134;5.596;2023-06-22T00:38:50;18.30;99.90
19206;DHT22;59358;52.134;5.596;2023-06-22T00:41:17;18.20;99.90
19206;DHT22;59358;52.134;5.596;2023-06-22T00:43:45;18.20;99.90
19206;DHT22;59358;52.134;5.596;2023-06-22T00:46:12;18.20;99.90
19206;DHT22;59358;52.134;5.596;2023-06-22T00:48:39;18.10;99.90
19206;DHT22;59358;52.134;5.596;2023-06-22T00:51:07;18.10;99.90
19206;DHT22;59358;52.134;5.596;2023-06-22T00:53:35;18.00;99.90
19206;DHT22;59358;52.134;5.596;2023-06-22T00:56:04;18.00;99.90
19206;DHT22;59358;52.134;5.596;2023-06-22T00:58:32;18.00;99.90
19206;DHT22;59358;52.134;5.596;2023-06-22T01:00:58;17.90;99.90
19206;DHT22;59358;52.134;5.596;2023-06-22T01:03:26;17.90;99.90
19206;DHT22;59358;52.134;5.596;2023-06-22T01:05:58;17.80;99.90
19206;DHT22;59358;52.134;5.596;2023-06-22T01:08:33;17.70;99.90
19206;DHT22;59358;52.134;5.596;2023-06-22T01:11:08;17.70;99.90
19206;DHT22;59358;52.134;5.596;2023-06-22T01:13:44;17.60;99.90
19206;DHT22;59358;52.134;5.596;2023-06-22T01:16:17;17.60;99.90
19206;DHT22;59358;52.134;5.596;2023-06-22T01:18:48;17.60;99.90
19206;DHT22;59358;52.134;5.596;2023-06-22T01:21:20;17.60;99.90
19206;DHT22;59358;52.134;5.596;2023-06-22T01:23:56;17.60;99.90
19206;DHT22;59358;52.134;5.596;2023-06-22T01:26:34;17.60;99.90
19206;DHT22;59358;52.134;5.596;2023-06-22T01:29:04;17.60;99.90
19206;DHT22;59358;52.134;5.596;2023-06-22T01:31:34;17.60;99.90
19206;DHT22;59358;52.134;5.596;2023-06-22T01:34:03;17.50;99.90
19206;DHT22;59358;52.134;5.596;2023-06-22T01:36:32;17.50;99.90
19206;DHT22;59358;52.134;5.596;2023-06-22T01:39:00;17.50;99.90
19206;DHT22;59358;52.134;5.596;2023-06-22T01:41:29;17.40;99.90
19206;DHT22;59358;52.134;5.596;2023-06-22T01:43:56;17.40;99.90
19206;DHT22;59358;52.134;5.596;2023-06-22T01:46:25;17.30;99.90
19206;DHT22;59358;52.134;5.596;2023-06-22T01:48:52;17.30;99.90
19206;DHT22;59358;52.134;5.596;2023-06-22T01:51:19;17.20;99.90
19206;DHT22;59358;52.134;5.596;2023-06-22T01:53:46;17.20;99.90
19206;DHT22;59358;52.134;5.596;2023-06-22T01:56:14;17.20;99.90
19206;DHT22;59358;52.134;5.596;2023-06-22T01:58:49;17.20;99.90
19206;DHT22;59358;52.134;5.596;2023-06-22T02:01:22;17.20;99.90
19206;DHT22;59358;52.134;5.596;2023-06-22T02:03:56;17.20;99.90
19206;DHT22;59358;52.134;5.596;2023-06-22T02:06:27;17.20;99.90
19206;DHT22;59358;52.134;5.596;2023-06-22T02:09:04;17.20;99.90
19206;DHT22;59358;52.134;5.596;2023-06-22T02:11:33;17.10;99.90
19206;DHT22;59358;52.134;5.596;2023-06-22T02:14:01;17.10;99.90
19206;DHT22;59358;52.134;5.596;2023-06-22T02:16:30;17.00;99.90
19206;DHT22;59358;52.134;5.596;2023-06-22T02:19:01;17.00;99.90
19206;DHT22;59358;52.134;5.596;2023-06-22T02:21:30;17.00;99.90
19206;DHT22;59358;52.134;5.596;2023-06-22T02:23:58;17.00;99.90
19206;DHT22;59358;52.134;5.596;2023-06-22T02:26:25;17.00;99.90
19206;DHT22;59358;52.134;5.596;2023-06-22T02:28:53;16.90;99.90
19206;DHT22;59358;52.134;5.596;2023-06-22T02:31:19;16.80;99.90
19206;DHT22;59358;52.134;5.596;2023-06-22T02:33:46;16.80;99.90
19206;DHT22;59358;52.134;5.596;2023-06-22T02:36:15;16.80;99.90
19206;DHT22;59358;52.134;5.596;2023-06-22T02:38:43;16.70;99.90
19206;DHT22;59358;52.134;5.596;2023-06-22T02:41:14;16.70;99.90
19206;DHT22;59358;52.134;5.596;2023-06-22T02:43:44;16.70;99.90
19206;DHT22;59358;52.134;5.596;2023-06-22T02:46:11;16.70;99.90
19206;DHT22;59358;52.134;5.596;2023-06-22T02:48:38;16.70;99.90
19206;DHT22;59358;52.134;5.596;2023-06-22T02:51:05;16.70;99.90
19206;DHT22;59358;52.134;5.596;2023-06-22T02:53:34;16.70;99.90
19206;DHT22;59358;52.134;5.596;2023-06-22T02:56:02;16.60;99.90
19206;DHT22;59358;52.134;5.596;2023-06-22T02:58:30;16.60;99.90
19206;DHT22;59358;52.134;5.596;2023-06-22T03:01:04;16.60;99.90
19206;DHT22;59358;52.134;5.596;2023-06-22T03:03:31;16.60;99.90
19206;DHT22;59358;52.134;5.596;2023-06-22T03:05:58;16.60;99.90
19206;DHT22;59358;52.134;5.596;2023-06-22T03:08:27;16.60;99.90
19206;DHT22;59358;52.134;5.596;2023-06-22T03:10:55;16.50;99.90
19206;DHT22;59358;52.134;5.596;2023-06-22T03:13:22;16.50;99.90
19206;DHT22;59358;52.134;5.596;2023-06-22T03:15:49;16.50;99.90
19206;DHT22;59358;52.134;5.596;2023-06-22T03:18:16;16.50;99.90
19206;DHT22;59358;52.134;5.596;2023-06-22T03:20:42;16.50;99.90
19206;DHT22;59358;52.134;5.596;2023-06-22T03:23:09;16.50;99.90
19206;DHT22;59358;52.134;5.596;2023-06-22T03:25:36;16.50;99.90
19206;DHT22;59358;52.134;5.596;2023-06-22T03:28:04;16.60;99.90
19206;DHT22;59358;52.134;5.596;2023-06-22T03:30:31;16.50;99.90
19206;DHT22;59358;52.134;5.596;2023-06-22T03:32:58;16.50;99.90
19206;DHT22;59358;52.134;5.596;2023-06-22T03:35:25;16.50;99.90
19206;DHT22;59358;52.134;5.596;2023-06-22T03:37:52;16.50;99.90
19206;DHT22;59358;52.134;5.596;2023-06-22T03:40:19;16.50;99.90
19206;DHT22;59358;52.134;5.596;2023-06-22T03:42:46;16.50;99.90
19206;DHT22;59358;52.134;5.596;2023-06-22T03:45:14;16.50;99.90
19206;DHT22;59358;52.134;5.596;2023-06-22T03:47:41;16.50;99.90
19206;DHT22;59358;52.134;5.596;2023-06-22T03:50:08;16.40;99.90
19206;DHT22;59358;52.134;5.596;2023-06-22T03:52:35;16.50;99.90
19206;DHT22;59358;52.134;5.596;2023-06-22T03:55:02;16.40;99.90
19206;DHT22;59358;52.134;5.596;2023-06-22T03:57:29;16.50;99.90
19206;DHT22;59358;52.134;5.596;2023-06-22T03:59:57;16.50;99.90
19206;DHT22;59358;52.134;5.596;2023-06-22T04:02:26;16.50;99.90
19206;DHT22;59358;52.134;5.596;2023-06-22T04:04:52;16.50;99.90
19206;DHT22;59358;52.134;5.596;2023-06-22T04:07:19;16.50;99.90
19206;DHT22;59358;52.134;5.596;2023-06-22T04:09:46;16.60;99.90
19206;DHT22;59358;52.134;5.596;2023-06-22T04:12:13;16.60;99.90
19206;DHT22;59358;52.134;5.596;2023-06-22T04:14:40;16.60;99.90
19206;DHT22;59358;52.134;5.596;2023-06-22T04:17:07;16.70;99.90
19206;DHT22;59358;52.134;5.596;2023-06-22T04:19:35;16.70;99.90
19206;DHT22;59358;52.134;5.596;2023-06-22T04:22:02;16.80;99.90
19206;DHT22;59358;52.134;5.596;2023-06-22T04:24:29;16.90;99.90
19206;DHT22;59358;52.134;5.596;2023-06-22T04:26:55;17.00;99.90
19206;DHT22;59358;52.134;5.596;2023-06-22T04:29:22;17.00;99.90
19206;DHT22;59358;52.134;5.596;2023-06-22T04:31:54;17.10;99.90
19206;DHT22;59358;52.134;5.596;2023-06-22T04:34:23;17.20;99.90
19206;DHT22;59358;52.134;5.596;2023-06-22T04:36:53;17.30;99.90
19206;DHT22;59358;52.134;5.596;2023-06-22T04:39:20;17.30;99.90
19206;DHT22;59358;52.134;5.596;2023-06-22T04:41:48;17.50;99.90
19206;DHT22;59358;52.134;5.596;2023-06-22T04:44:17;17.50;99.90
19206;DHT22;59358;52.134;5.596;2023-06-22T04:46:49;17.60;99.90
19206;DHT22;59358;52.134;5.596;2023-06-22T04:49:19;17.60;99.90
19206;DHT22;59358;52.134;5.596;2023-06-22T04:51:48;17.70;99.90
19206;DHT22;59358;52.134;5.596;2023-06-22T04:54:18;17.80;99.90
19206;DHT22;59358;52.134;5.596;2023-06-22T04:56:45;17.90;99.90
19206;DHT22;59358;52.134;5.596;2023-06-22T04:59:12;18.00;99.90
19206;DHT22;59358;52.134;5.596;2023-06-22T05:01:39;18.10;99.90
19206;DHT22;59358;52.134;5.596;2023-06-22T05:04:06;18.10;99.90
19206;DHT22;59358;52.134;5.596;2023-06-22T05:06:33;18.10;99.90
19206;DHT22;59358;52.134;5.596;2023-06-22T05:09:00;18.20;99.90
19206;DHT22;59358;52.134;5.596;2023-06-22T05:11:29;18.20;99.90
19206;DHT22;59358;52.134;5.596;2023-06-22T05:13:56;18.30;99.90
19206;DHT22;59358;52.134;5.596;2023-06-22T05:16:24;18.40;99.90
19206;DHT22;59358;52.134;5.596;2023-06-22T05:18:52;18.50;99.90
19206;DHT22;59358;52.134;5.596;2023-06-22T05:21:22;18.70;99.90
19206;DHT22;59358;52.134;5.596;2023-06-22T05:23:49;18.80;99.90
19206;DHT22;59358;52.134;5.596;2023-06-22T05:26:17;18.90;99.90
19206;DHT22;59358;52.134;5.596;2023-06-22T05:28:45;18.90;99.90
19206;DHT22;59358;52.134;5.596;2023-06-22T05:31:13;19.00;99.90
19206;DHT22;59358;52.134;5.596;2023-06-22T05:33:41;19.10;99.90
19206;DHT22;59358;52.134;5.596;2023-06-22T05:36:08;19.30;99.90
19206;DHT22;59358;52.134;5.596;2023-06-22T05:38:36;19.40;99.90
19206;DHT22;59358;52.134;5.596;2023-06-22T05:41:03;19.60;99.90
19206;DHT22;59358;52.134;5.596;2023-06-22T05:43:30;19.70;99.90
19206;DHT22;59358;52.134;5.596;2023-06-22T05:46:00;19.90;99.90
19206;DHT22;59358;52.134;5.596;2023-06-22T05:48:27;20.10;99.90
19206;DHT22;59358;52.134;5.596;2023-06-22T05:50:54;20.30;99.90
19206;DHT22;59358;52.134;5.596;2023-06-22T05:53:21;20.30;99.90
19206;DHT22;59358;52.134;5.596;2023-06-22T05:55:48;20.50;99.90
19206;DHT22;59358;52.134;5.596;2023-06-22T05:58:15;20.60;99.90
19206;DHT22;59358;52.134;5.596;2023-06-22T06:00:42;20.70;99.90
19206;DHT22;59358;52.134;5.596;2023-06-22T06:03:11;20.80;99.90
19206;DHT22;59358;52.134;5.596;2023-06-22T06:05:38;20.90;99.90
19206;DHT22;59358;52.134;5.596;2023-06-22T06:08:05;21.10;99.90
19206;DHT22;59358;52.134;5.596;2023-06-22T06:10:33;21.10;99.90
19206;DHT22;59358;52.134;5.596;2023-06-22T06:13:00;21.20;99.90
19206;DHT22;59358;52.134;5.596;2023-06-22T06:15:29;21.00;99.90
19206;DHT22;59358;52.134;5.596;2023-06-22T06:17:56;21.00;99.90
19206;DHT22;59358;52.134;5.596;2023-06-22T06:20:26;21.00;99.90
19206;DHT22;59358;52.134;5.596;2023-06-22T06:22:54;21.20;99.90
19206;DHT22;59358;52.134;5.596;2023-06-22T06:25:21;21.40;99.90
19206;DHT22;59358;52.134;5.596;2023-06-22T06:27:49;21.40;99.90
19206;DHT22;59358;52.134;5.596;2023-06-22T06:30:18;21.50;99.90
19206;DHT22;59358;52.134;5.596;2023-06-22T06:32:45;21.60;99.90
19206;DHT22;59358;52.134;5.596;2023-06-22T06:35:14;21.80;99.90
19206;DHT22;59358;52.134;5.596;2023-06-22T06:37:44;22.00;99.90
19206;DHT22;59358;52.134;5.596;2023-06-22T06:40:13;22.00;99.90
19206;DHT22;59358;52.134;5.596;2023-06-22T06:42:41;22.10;99.90
19206;DHT22;59358;52.134;5.596;2023-06-22T06:45:10;22.10;99.90
19206;DHT22;59358;52.134;5.596;2023-06-22T06:47:37;22.20;99.90
19206;DHT22;59358;52.134;5.596;2023-06-22T06:50:05;22.20;99.90
19206;DHT22;59358;52.134;5.596;2023-06-22T06:52:32;22.30;99.90
19206;DHT22;59358;52.134;5.596;2023-06-22T06:55:00;22.30;99.90
19206;DHT22;59358;52.134;5.596;2023-06-22T06:57:29;22.40;99.90
19206;DHT22;59358;52.134;5.596;2023-06-22T06:59:57;22.60;99.90
19206;DHT22;59358;52.134;5.596;2023-06-22T07:02:26;22.70;99.90
19206;DHT22;59358;52.134;5.596;2023-06-22T07:04:53;22.70;99.90
19206;DHT22;59358;52.134;5.596;2023-06-22T07:07:21;22.70;99.90
19206;DHT22;59358;52.134;5.596;2023-06-22T07:09:48;22.80;99.90
19206;DHT22;59358;52.134;5.596;2023-06-22T07:12:16;22.90;99.90
19206;DHT22;59358;52.134;5.596;2023-06-22T07:14:43;23.00;99.90
19206;DHT22;59358;52.134;5.596;2023-06-22T07:17:10;23.10;99.90
19206;DHT22;59358;52.134;5.596;2023-06-22T07:19:37;23.20;99.90
19206;DHT22;59358;52.134;5.596;2023-06-22T07:22:04;23.30;99.90
19206;DHT22;59358;52.134;5.596;2023-06-22T07:24:31;23.50;99.90
19206;DHT22;59358;52.134;5.596;2023-06-22T07:26:59;23.70;99.90
19206;DHT22;59358;52.134;5.596;2023-06-22T07:29:27;23.80;99.90
19206;DHT22;59358;52.134;5.596;2023-06-22T07:31:53;24.00;99.90
19206;DHT22;59358;52.134;5.596;2023-06-22T07:34:22;24.00;99.90
19206;DHT22;59358;52.134;5.596;2023-06-22T07:36:48;24.00;99.90
19206;DHT22;59358;52.134;5.596;2023-06-22T07:39:15;24.00;99.90
19206;DHT22;59358;52.134;5.596;2023-06-22T07:41:42;24.20;99.90
19206;DHT22;59358;52.134;5.596;2023-06-22T07:44:09;24.20;99.90
19206;DHT22;59358;52.134;5.596;2023-06-22T07:46:37;24.20;99.90
19206;DHT22;59358;52.134;5.596;2023-06-22T07:49:04;24.10;99.90
19206;DHT22;59358;52.134;5.596;2023-06-22T07:51:31;24.00;99.90
19206;DHT22;59358;52.134;5.596;2023-06-22T07:53:57;24.00;99.90
19206;DHT22;59358;52.134;5.596;2023-06-22T07:56:24;24.20;99.90
19206;DHT22;59358;52.134;5.596;2023-06-22T07:58:51;24.40;99.90
19206;DHT22;59358;52.134;5.596;2023-06-22T08:01:18;24.60;99.90
19206;DHT22;59358;52.134;5.596;2023-06-22T08:03:48;24.90;99.90
19206;DHT22;59358;52.134;5.596;2023-06-22T08:06:15;24.90;99.90
19206;DHT22;59358;52.134;5.596;2023-06-22T08:08:42;24.80;99.90
19206;DHT22;59358;52.134;5.596;2023-06-22T08:11:09;24.90;99.90
19206;DHT22;59358;52.134;5.596;2023-06-22T08:13:36;24.90;99.90
19206;DHT22;59358;52.134;5.596;2023-06-22T08:16:03;25.10;99.90
19206;DHT22;59358;52.134;5.596;2023-06-22T08:18:30;25.10;99.90
19206;DHT22;59358;52.134;5.596;2023-06-22T08:20:58;25.00;99.90
19206;DHT22;59358;52.134;5.596;2023-06-22T08:23:25;25.10;99.90
19206;DHT22;59358;52.134;5.596;2023-06-22T08:25:52;25.20;99.90
19206;DHT22;59358;52.134;5.596;2023-06-22T08:28:19;25.30;99.90
19206;DHT22;59358;52.134;5.596;2023-06-22T08:30:46;25.40;99.90
19206;DHT22;59358;52.134;5.596;2023-06-22T08:33:12;25.50;99.90
19206;DHT22;59358;52.134;5.596;2023-06-22T08:35:39;25.50;99.90
19206;DHT22;59358;52.134;5.596;2023-06-22T08:38:07;25.60;99.90
19206;DHT22;59358;52.134;5.596;2023-06-22T08:40:34;25.80;99.90
19206;DHT22;59358;52.134;5.596;2023-06-22T08:43:01;26.10;99.90
19206;DHT22;59358;52.134;5.596;2023-06-22T08:45:28;26.20;99.90
19206;DHT22;59358;52.134;5.596;2023-06-22T08:47:54;26.10;99.90
19206;DHT22;59358;52.134;5.596;2023-06-22T08:50:21;26.00;99.90
19206;DHT22;59358;52.134;5.596;2023-06-22T08:52:48;26.10;99.90
19206;DHT22;59358;52.134;5.596;2023-06-22T08:55:17;26.10;99.90
19206;DHT22;59358;52.134;5.596;2023-06-22T08:57:43;26.20;99.90
19206;DHT22;59358;52.134;5.596;2023-06-22T09:00:11;26.50;99.90
19206;DHT22;59358;52.134;5.596;2023-06-22T09:02:46;26.70;99.90
19206;DHT22;59358;52.134;5.596;2023-06-22T09:05:13;26.80;99.90
19206;DHT22;59358;52.134;5.596;2023-06-22T09:07:40;26.50;99.90
19206;DHT22;59358;52.134;5.596;2023-06-22T09:10:08;26.50;99.90
19206;DHT22;59358;52.134;5.596;2023-06-22T09:12:37;26.70;99.90
19206;DHT22;59358;52.134;5.596;2023-06-22T09:15:04;27.00;99.90
19206;DHT22;59358;52.134;5.596;2023-06-22T09:17:33;27.20;99.90
19206;DHT22;59358;52.134;5.596;2023-06-22T09:20:00;27.20;98.20
19206;DHT22;59358;52.134;5.596;2023-06-22T09:22:28;27.20;98.70
19206;DHT22;59358;52.134;5.596;2023-06-22T09:24:55;27.10;99.80
19206;DHT22;59358;52.134;5.596;2023-06-22T09:27:21;27.30;99.90
19206;DHT22;59358;52.134;5.596;2023-06-22T09:29:50;27.30;99.90
19206;DHT22;59358;52.134;5.596;2023-06-22T09:32:17;27.30;99.70
19206;DHT22;59358;52.134;5.596;2023-06-22T09:34:43;27.20;99.30
19206;DHT22;59358;52.134;5.596;2023-06-22T09:37:11;27.10;99.00
19206;DHT22;59358;52.134;5.596;2023-06-22T09:39:37;27.20;98.30
19206;DHT22;59358;52.134;5.596;2023-06-22T09:42:05;27.10;98.50
19206;DHT22;59358;52.134;5.596;2023-06-22T09:44:32;27.10;99.30
19206;DHT22;59358;52.134;5.596;2023-06-22T09:47:00;27.20;98.00
19206;DHT22;59358;52.134;5.596;2023-06-22T09:49:27;27.20;98.80
19206;DHT22;59358;52.134;5.596;2023-06-22T09:51:54;27.20;98.80
19206;DHT22;59358;52.134;5.596;2023-06-22T09:54:21;27.50;98.50
19206;DHT22;59358;52.134;5.596;2023-06-22T09:56:48;27.20;99.10
19206;DHT22;59358;52.134;5.596;2023-06-22T09:59:15;27.20;99.00
19206;DHT22;59358;52.134;5.596;2023-06-22T10:01:56;27.20;99.20
19206;DHT22;59358;52.134;5.596;2023-06-22T10:04:25;27.30;98.90
19206;DHT22;59358;52.134;5.596;2023-06-22T10:06:52;27.20;99.30
19206;DHT22;59358;52.134;5.596;2023-06-22T10:09:19;27.20;99.40
19206;DHT22;59358;52.134;5.596;2023-06-22T10:11:46;27.10;99.80
19206;DHT22;59358;52.134;5.596;2023-06-22T10:14:13;27.00;99.90
19206;DHT22;59358;52.134;5.596;2023-06-22T10:16:40;26.90;99.90
19206;DHT22;59358;52.134;5.596;2023-06-22T10:19:07;26.80;99.90
19206;DHT22;59358;52.134;5.596;2023-06-22T10:21:36;26.80;99.90
19206;DHT22;59358;52.134;5.596;2023-06-22T10:24:03;26.60;99.80
19206;DHT22;59358;52.134;5.596;2023-06-22T10:26:32;26.50;99.90
19206;DHT22;59358;52.134;5.596;2023-06-22T10:28:59;26.40;99.90
19206;DHT22;59358;52.134;5.596;2023-06-22T10:31:26;26.40;99.90
19206;DHT22;59358;52.134;5.596;2023-06-22T10:33:53;26.30;99.90
19206;DHT22;59358;52.134;5.596;2023-06-22T10:36:20;26.00;99.90
19206;DHT22;59358;52.134;5.596;2023-06-22T10:38:48;25.90;99.90
19206;DHT22;59358;52.134;5.596;2023-06-22T10:41:16;26.00;99.90
19206;DHT22;59358;52.134;5.596;2023-06-22T10:43:42;26.00;99.90
19206;DHT22;59358;52.134;5.596;2023-06-22T10:46:09;26.10;99.90
19206;DHT22;59358;52.134;5.596;2023-06-22T10:48:36;26.10;99.90
19206;DHT22;59358;52.134;5.596;2023-06-22T10:51:03;26.10;99.90
19206;DHT22;59358;52.134;5.596;2023-06-22T10:53:30;26.10;99.90
19206;DHT22;59358;52.134;5.596;2023-06-22T10:55:58;26.20;99.90
19206;DHT22;59358;52.134;5.596;2023-06-22T10:58:25;26.30;99.70
19206;DHT22;59358;52.134;5.596;2023-06-22T11:00:52;26.50;99.90
19206;DHT22;59358;52.134;5.596;2023-06-22T11:03:20;26.50;99.90
19206;DHT22;59358;52.134;5.596;2023-06-22T11:05:46;26.50;99.90
19206;DHT22;59358;52.134;5.596;2023-06-22T11:08:13;26.50;99.70
19206;DHT22;59358;52.134;5.596;2023-06-22T11:10:40;26.70;99.80
19206;DHT22;59358;52.134;5.596;2023-06-22T11:13:09;26.80;99.90
19206;DHT22;59358;52.134;5.596;2023-06-22T11:15:36;27.00;99.90
19206;DHT22;59358;52.134;5.596;2023-06-22T11:18:03;27.00;99.90
19206;DHT22;59358;52.134;5.596;2023-06-22T11:20:30;27.30;99.50
19206;DHT22;59358;52.134;5.596;2023-06-22T11:23:00;27.30;99.30
19206;DHT22;59358;52.134;5.596;2023-06-22T11:25:26;26.90;99.80
19206;DHT22;59358;52.134;5.596;2023-06-22T11:27:54;26.80;99.70
19206;DHT22;59358;52.134;5.596;2023-06-22T11:30:22;26.90;99.90
19206;DHT22;59358;52.134;5.596;2023-06-22T11:32:49;27.00;99.90
19206;DHT22;59358;52.134;5.596;2023-06-22T11:35:16;27.00;99.90
19206;DHT22;59358;52.134;5.596;2023-06-22T11:37:43;26.90;99.90
19206;DHT22;59358;52.134;5.596;2023-06-22T11:40:10;26.90;99.90
19206;DHT22;59358;52.134;5.596;2023-06-22T11:42:37;26.90;99.90
19206;DHT22;59358;52.134;5.596;2023-06-22T11:45:06;27.00;99.90
19206;DHT22;59358;52.134;5.596;2023-06-22T11:47:34;27.20;99.90
19206;DHT22;59358;52.134;5.596;2023-06-22T11:50:01;27.20;99.90
19206;DHT22;59358;52.134;5.596;2023-06-22T11:52:28;27.10;99.90
19206;DHT22;59358;52.134;5.596;2023-06-22T11:54:55;27.10;99.60
19206;DHT22;59358;52.134;5.596;2023-06-22T11:57:22;27.20;99.80
19206;DHT22;59358;52.134;5.596;2023-06-22T11:59:49;27.10;99.90
19206;DHT22;59358;52.134;5.596;2023-06-22T12:02:15;27.00;99.90
19206;DHT22;59358;52.134;5.596;2023-06-22T12:04:44;26.80;99.90
19206;DHT22;59358;52.134;5.596;2023-06-22T12:07:10;26.60;99.90
19206;DHT22;59358;52.134;5.596;2023-06-22T12:09:37;26.30;99.90
19206;DHT22;59358;52.134;5.596;2023-06-22T12:12:05;26.10;99.90
19206;DHT22;59358;52.134;5.596;2023-06-22T12:14:32;25.90;99.90
19206;DHT22;59358;52.134;5.596;2023-06-22T12:16:58;25.90;99.90
19206;DHT22;59358;52.134;5.596;2023-06-22T12:19:25;25.60;99.90
19206;DHT22;59358;52.134;5.596;2023-06-22T12:21:53;25.40;99.90
19206;DHT22;59358;52.134;5.596;2023-06-22T12:24:20;25.20;99.90
19206;DHT22;59358;52.134;5.596;2023-06-22T12:26:47;24.80;99.90
19206;DHT22;59358;52.134;5.596;2023-06-22T12:29:14;24.50;99.90
19206;DHT22;59358;52.134;5.596;2023-06-22T12:31:41;24.20;99.90
19206;DHT22;59358;52.134;5.596;2023-06-22T12:34:08;24.00;99.90
19206;DHT22;59358;52.134;5.596;2023-06-22T12:36:35;23.80;99.90
19206;DHT22;59358;52.134;5.596;2023-06-22T12:39:03;23.60;99.90
19206;DHT22;59358;52.134;5.596;2023-06-22T12:41:31;23.40;99.90
19206;DHT22;59358;52.134;5.596;2023-06-22T12:43:57;23.20;99.90
19206;DHT22;59358;52.134;5.596;2023-06-22T12:46:24;23.20;99.90
19206;DHT22;59358;52.134;5.596;2023-06-22T12:48:51;23.30;99.90
19206;DHT22;59358;52.134;5.596;2023-06-22T12:51:21;23.50;99.90
19206;DHT22;59358;52.134;5.596;2023-06-22T12:53:48;23.60;99.90
19206;DHT22;59358;52.134;5.596;2023-06-22T12:56:16;23.60;99.90
19206;DHT22;59358;52.134;5.596;2023-06-22T12:58:43;23.60;99.90
19206;DHT22;59358;52.134;5.596;2023-06-22T13:01:10;23.70;99.90
19206;DHT22;59358;52.134;5.596;2023-06-22T13:03:37;23.80;99.90
19206;DHT22;59358;52.134;5.596;2023-06-22T13:06:04;24.00;99.90
19206;DHT22;59358;52.134;5.596;2023-06-22T13:08:31;24.10;99.90
19206;DHT22;59358;52.134;5.596;2023-06-22T13:10:58;24.00;99.90
19206;DHT22;59358;52.134;5.596;2023-06-22T13:13:26;23.90;99.90
19206;DHT22;59358;52.134;5.596;2023-06-22T13:15:53;23.70;99.90
19206;DHT22;59358;52.134;5.596;2023-06-22T13:18:20;23.50;99.90
19206;DHT22;59358;52.134;5.596;2023-06-22T13:20:47;23.30;99.90
19206;DHT22;59358;52.134;5.596;2023-06-22T13:23:14;23.00;99.90
19206;DHT22;59358;52.134;5.596;2023-06-22T13:25:41;22.90;99.90
19206;DHT22;59358;52.134;5.596;2023-06-22T13:28:08;22.80;99.90
19206;DHT22;59358;52.134;5.596;2023-06-22T13:30:37;22.70;99.90
19206;DHT22;59358;52.134;5.596;2023-06-22T13:33:04;22.70;99.90
19206;DHT22;59358;52.134;5.596;2023-06-22T13:35:30;22.60;99.90
19206;DHT22;59358;52.134;5.596;2023-06-22T13:37:57;22.70;99.90
19206;DHT22;59358;52.134;5.596;2023-06-22T13:40:24;22.70;99.90
19206;DHT22;59358;52.134;5.596;2023-06-22T13:42:51;22.70;99.90
19206;DHT22;59358;52.134;5.596;2023-06-22T13:45:18;22.70;99.90
19206;DHT22;59358;52.134;5.596;2023-06-22T13:47:46;22.70;99.90
19206;DHT22;59358;52.134;5.596;2023-06-22T13:50:13;22.70;99.90
19206;DHT22;59358;52.134;5.596;2023-06-22T13:52:40;22.60;99.90
19206;DHT22;59358;52.134;5.596;2023-06-22T13:55:08;22.60;99.90
19206;DHT22;59358;52.134;5.596;2023-06-22T13:57:35;22.60;99.90
19206;DHT22;59358;52.134;5.596;2023-06-22T14:00:03;22.60;99.90
19206;DHT22;59358;52.134;5.596;2023-06-22T14:02:31;22.60;99.90
19206;DHT22;59358;52.134;5.596;2023-06-22T14:04:59;22.70;99.90
19206;DHT22;59358;52.134;5.596;2023-06-22T14:07:28;22.70;99.90
19206;DHT22;59358;52.134;5.596;2023-06-22T14:09:54;22.70;99.90
19206;DHT22;59358;52.134;5.596;2023-06-22T14:12:21;22.60;99.90
19206;DHT22;59358;52.134;5.596;2023-06-22T14:14:48;22.60;99.90
19206;DHT22;59358;52.134;5.596;2023-06-22T14:17:15;22.60;99.90
19206;DHT22;59358;52.134;5.596;2023-06-22T14:19:42;22.50;99.90
19206;DHT22;59358;52.134;5.596;2023-06-22T14:22:10;22.50;99.90
19206;DHT22;59358;52.134;5.596;2023-06-22T14:24:37;22.50;99.90
19206;DHT22;59358;52.134;5.596;2023-06-22T14:27:04;22.50;99.90
19206;DHT22;59358;52.134;5.596;2023-06-22T14:29:33;22.40;99.90
19206;DHT22;59358;52.134;5.596;2023-06-22T14:32:00;22.30;99.90
19206;DHT22;59358;52.134;5.596;2023-06-22T14:34:26;22.20;99.90
19206;DHT22;59358;52.134;5.596;2023-06-22T14:36:53;22.10;99.90
19206;DHT22;59358;52.134;5.596;2023-06-22T14:39:22;22.10;99.90
19206;DHT22;59358;52.134;5.596;2023-06-22T14:41:48;22.00;99.90
19206;DHT22;59358;52.134;5.596;2023-06-22T14:44:15;21.90;99.90
19206;DHT22;59358;52.134;5.596;2023-06-22T14:46:42;21.70;99.90
19206;DHT22;59358;52.134;5.596;2023-06-22T14:49:09;21.70;99.90
19206;DHT22;59358;52.134;5.596;2023-06-22T14:51:36;21.60;99.90
19206;DHT22;59358;52.134;5.596;2023-06-22T14:54:03;21.60;99.90
19206;DHT22;59358;52.134;5.596;2023-06-22T14:56:31;21.60;99.90
19206;DHT22;59358;52.134;5.596;2023-06-22T14:58:58;21.60;99.90
19206;DHT22;59358;52.134;5.596;2023-06-22T15:01:25;21.60;99.90
19206;DHT22;59358;52.134;5.596;2023-06-22T15:03:51;21.60;99.90
19206;DHT22;59358;52.134;5.596;2023-06-22T15:06:18;21.50;99.90
19206;DHT22;59358;52.134;5.596;2023-06-22T15:08:45;21.50;99.90
19206;DHT22;59358;52.134;5.596;2023-06-22T15:11:12;21.40;99.90
19206;DHT22;59358;52.134;5.596;2023-06-22T15:13:41;21.30;99.90
19206;DHT22;59358;52.134;5.596;2023-06-22T15:16:08;21.10;99.90
19206;DHT22;59358;52.134;5.596;2023-06-22T15:18:36;21.00;99.90
19206;DHT22;59358;52.134;5.596;2023-06-22T15:21:03;20.90;99.90
19206;DHT22;59358;52.134;5.596;2023-06-22T15:23:31;20.90;99.90
19206;DHT22;59358;52.134;5.596;2023-06-22T15:25:58;20.80;99.90
19206;DHT22;59358;52.134;5.596;2023-06-22T15:28:25;20.80;99.90
19206;DHT22;59358;52.134;5.596;2023-06-22T15:30:53;20.80;99.90
19206;DHT22;59358;52.134;5.596;2023-06-22T15:33:21;20.90;99.90